Time;durP1;ratioP1;P1;durP2;ratioP2;P2;SDS_P1;SDS_P2;PMS_P1;PMS_P2;Temp;Humidity;BMP_temperature;BMP_pressure;BME280_temperature;BME280_humidity;BME280_pressure;Samples;Min_cycle;Max_cycle;Signal;HPM_P1;HPM_P2
2022/08/03 00:01:06;;;;;;;6.27;5.67;;;19.40;76.90;;;18.57;68.64;98018.50;5066587;28;20457;-75
2022/08/03 00:03:34;;;;;;;7.03;6.43;;;19.40;77.10;;;18.56;68.49;98014.09;5066019;28;21025;-75
2022/08/03 00:06:01;;;;;;;6.67;6.17;;;19.30;77.30;;;18.56;68.56;98025.06;5065986;28;20461;-74
2022/08/03 00:08:29;;;;;;;7.63;5.80;;;19.30;77.60;;;18.49;69.17;98013.56;5068600;28;20575;-75
2022/08/03 00:10:56;;;;;;;7.00;6.30;;;19.20;78.10;;;18.40;69.09;98011.31;5069705;28;20479;-74
2022/08/03 00:13:24;;;;;;;6.77;6.07;;;19.20;78.30;;;18.19;69.86;98015.06;5057212;28;20483;-75
2022/08/03 00:15:51;;;;;;;6.27;5.77;;;19.00;78.80;;;18.06;70.22;98008.16;5067400;28;20502;-74
2022/08/03 00:18:19;;;;;;;6.53;6.03;;;18.90;79.40;;;18.09;70.70;98005.69;5067733;28;20467;-75
2022/08/03 00:20:47;;;;;;;6.27;5.87;;;18.80;80.00;;;18.04;70.96;98011.16;5083665;28;20463;-73
2022/08/03 00:23:15;;;;;;;6.47;5.97;;;18.80;80.10;;;17.92;71.13;98008.59;5066069;28;20991;-75
2022/08/03 00:25:43;;;;;;;6.33;5.80;;;18.70;80.70;;;18.04;70.75;98008.41;5063746;28;20457;-75
2022/08/03 00:28:10;;;;;;;6.57;6.00;;;18.80;80.90;;;18.00;71.03;98007.28;5069067;28;20970;-75
2022/08/03 00:30:38;;;;;;;6.10;5.60;;;18.80;81.10;;;17.97;71.42;98019.53;5068504;28;20459;-74
2022/08/03 00:33:05;;;;;;;8.20;7.40;;;18.80;81.50;;;18.02;71.27;98016.06;5066159;28;21110;-74
2022/08/03 00:35:32;;;;;;;6.67;6.17;;;18.80;81.60;;;17.96;71.11;98012.44;5067265;28;20511;-73
2022/08/03 00:38:00;;;;;;;6.47;5.97;;;18.80;81.60;;;17.91;71.53;98019.78;5063425;28;21068;-74
2022/08/03 00:40:29;;;;;;;6.27;5.67;;;18.70;81.80;;;17.95;71.33;98010.78;5069896;28;20484;-74
2022/08/03 00:43:00;;;;;;;6.40;5.80;;;18.70;82.10;;;18.05;71.07;98014.72;5068518;28;20468;-74
2022/08/03 00:45:31;;;;;;;6.70;6.10;;;18.80;82.00;;;17.87;71.65;98018.66;5062868;28;21084;-75
2022/08/03 00:48:00;;;;;;;7.00;6.40;;;18.70;82.00;;;17.74;72.19;98014.47;5066539;28;20549;-75
2022/08/03 00:50:30;;;;;;;7.17;6.57;;;18.60;82.40;;;17.73;72.03;98016.38;5065885;28;21035;-75
2022/08/03 00:53:00;;;;;;;6.87;6.30;;;18.50;82.60;;;17.61;72.47;98019.31;5061969;28;21044;-76
2022/08/03 00:55:28;;;;;;;6.70;6.03;;;18.40;82.70;;;17.53;72.64;98027.97;5073117;28;20547;-74
2022/08/03 00:57:56;;;;;;;6.50;6.00;;;18.40;83.20;;;17.55;72.90;98014.88;5055942;28;20871;-76
2022/08/03 01:00:26;;;;;;;6.50;5.90;;;18.40;83.50;;;17.70;72.35;98025.13;5063855;28;20465;-77
2022/08/03 01:02:54;;;;;;;6.50;5.93;;;18.40;83.30;;;17.47;73.08;98007.19;5064812;28;21259;-75
2022/08/03 01:05:22;;;;;;;7.13;6.53;;;18.40;83.60;;;17.30;73.44;98010.03;5065889;28;20453;-76
2022/08/03 01:08:04;;;;;;;6.33;5.87;;;18.20;84.00;;;17.39;73.61;98013.94;5077214;28;20480;-76
2022/08/03 01:10:41;;;;;;;6.73;6.20;;;18.20;84.80;;;17.40;73.58;98021.84;5069112;28;20601;-75
2022/08/03 01:13:22;;;;;;;6.50;6.00;;;18.20;84.70;;;17.50;73.40;98009.38;5081066;28;20463;-73
2022/08/03 01:16:00;;;;;;;7.10;6.50;;;18.20;84.70;;;17.51;73.55;98011.84;5086301;28;20456;-74
2022/08/03 01:18:37;;;;;;;6.40;5.90;;;18.30;84.50;;;17.33;74.20;98012.22;5083190;28;20472;-73
2022/08/03 01:21:11;;;;;;;7.20;6.60;;;18.20;84.80;;;17.33;74.04;98020.44;5067581;28;20448;-73
2022/08/03 01:23:56;;;;;;;5.87;5.47;;;18.10;84.90;;;17.34;73.98;98013.88;5078157;28;20445;-73
2022/08/03 01:27:03;;;;;;;6.33;5.83;;;18.20;85.20;;;17.31;74.30;98014.41;5069634;28;20451;-75
2022/08/03 01:29:58;;;;;;;7.07;6.53;;;18.10;85.50;;;17.19;74.35;98018.13;5061410;28;20967;-75
2022/08/03 01:32:39;;;;;;;6.30;5.70;;;18.00;85.70;;;17.17;74.65;98019.47;5057513;28;20518;-75
2022/08/03 01:35:11;;;;;;;6.13;5.60;;;18.00;85.80;;;17.13;74.68;98014.50;5062394;28;20496;-76
2022/08/03 01:37:43;;;;;;;7.40;6.60;;;17.90;86.50;;;17.07;75.14;98015.56;5065692;28;20457;-76
2022/08/03 01:40:14;;;;;;;6.27;5.77;;;17.90;86.40;;;17.20;74.51;98011.56;5069357;28;20501;-76
2022/08/03 01:42:42;;;;;;;5.57;5.27;;;17.90;86.30;;;17.23;74.41;98008.34;5063491;28;20453;-76
2022/08/03 01:45:16;;;;;;;6.10;5.60;;;18.00;85.80;;;17.06;75.04;98016.63;5065197;28;20452;-76
2022/08/03 01:47:46;;;;;;;6.53;5.93;;;17.90;86.30;;;16.76;75.05;97968.03;5075373;28;20536;-75
2022/08/03 01:50:15;;;;;;;6.30;5.80;;;17.80;86.50;;;16.85;75.55;98000.03;5068129;28;20954;-76
2022/08/03 01:52:44;;;;;;;6.23;5.77;;;17.70;86.90;;;16.88;75.20;98001.41;5096882;27;20968;-76
2022/08/03 01:55:13;;;;;;;6.30;5.80;;;17.70;86.70;;;16.88;75.73;97995.94;5061821;28;20516;-75
2022/08/03 01:57:43;;;;;;;6.50;5.90;;;17.70;87.40;;;16.74;76.14;97998.28;5064432;28;20479;-75
2022/08/03 02:00:15;;;;;;;6.90;6.40;;;17.50;87.90;;;16.65;76.57;98000.63;5068497;28;20873;-76
2022/08/03 02:02:43;;;;;;;6.40;5.90;;;17.50;88.60;;;16.57;76.77;97988.28;5063196;28;20562;-76
2022/08/03 02:05:14;;;;;;;6.73;6.23;;;17.50;89.20;;;16.58;76.61;97967.28;5064762;28;20480;-74
2022/08/03 02:07:43;;;;;;;6.73;6.23;;;17.50;88.70;;;16.74;76.83;97989.25;5064435;28;21102;-74
2022/08/03 02:10:13;;;;;;;8.43;6.10;;;17.50;89.30;;;16.78;77.01;97998.59;5069556;28;20559;-75
2022/08/03 02:12:43;;;;;;;7.60;6.37;;;17.60;89.60;;;16.81;76.56;97987.16;5066612;28;20643;-75
2022/08/03 02:15:15;;;;;;;7.13;6.53;;;17.60;88.80;;;16.78;77.16;97993.94;5067490;28;20445;-74
2022/08/03 02:17:44;;;;;;;8.00;6.30;;;17.60;89.60;;;16.60;77.77;97988.84;5064567;28;20547;-76
2022/08/03 02:20:13;;;;;;;7.50;6.80;;;17.50;89.90;;;16.59;77.67;98007.09;5070521;28;20714;-76
2022/08/03 02:22:43;;;;;;;7.27;6.67;;;17.40;90.00;;;16.42;78.19;98002.53;5064810;28;20460;-75
2022/08/03 02:25:13;;;;;;;7.00;6.40;;;17.30;90.20;;;16.26;78.60;97981.63;5070704;28;20464;-75
2022/08/03 02:27:46;;;;;;;7.00;6.40;;;17.20;90.70;;;16.33;78.88;97997.78;5068576;28;20898;-75
2022/08/03 02:30:15;;;;;;;9.80;6.20;;;17.20;90.70;;;16.29;78.97;97997.47;5070022;28;20463;-75
2022/08/03 02:32:52;;;;;;;6.43;5.93;;;17.10;90.90;;;16.30;79.09;97993.66;5074165;28;20555;-75
2022/08/03 02:35:22;;;;;;;7.30;6.80;;;17.20;90.90;;;16.34;78.92;98003.00;5073823;28;20451;-75
2022/08/03 02:37:55;;;;;;;7.60;6.90;;;17.20;90.90;;;16.30;78.93;97999.13;5064248;28;21077;-74
2022/08/03 02:40:24;;;;;;;7.03;6.33;;;17.10;90.80;;;16.20;79.63;98004.47;5070893;28;20445;-75
2022/08/03 02:42:56;;;;;;;7.77;6.50;;;17.10;91.10;;;16.11;80.20;97993.16;5068432;28;20464;-74
2022/08/03 02:45:27;;;;;;;7.17;6.57;;;17.00;91.50;;;16.17;79.92;97988.63;5103947;27;20579;-75
2022/08/03 02:48:00;;;;;;;7.60;6.87;;;17.00;91.30;;;16.31;79.65;97994.50;5067949;28;20900;-75
2022/08/03 02:50:29;;;;;;;7.70;6.80;;;17.10;91.50;;;16.39;78.89;97997.59;5067364;28;20491;-74
2022/08/03 02:52:58;;;;;;;8.53;7.30;;;17.20;91.10;;;16.38;78.93;97995.16;5067399;28;20465;-75
2022/08/03 02:55:27;;;;;;;11.47;7.77;;;17.20;91.20;;;16.25;79.13;97983.53;5072945;28;20531;-75
2022/08/03 02:57:55;;;;;;;9.63;7.13;;;17.20;91.00;;;16.43;78.74;98001.47;5073653;28;20454;-74
2022/08/03 03:00:24;;;;;;;6.97;6.27;;;17.20;91.10;;;16.54;78.23;97999.72;5065462;28;20553;-73
2022/08/03 03:02:53;;;;;;;7.43;6.73;;;17.30;90.70;;;16.70;77.18;97986.25;5072699;28;20553;-74
2022/08/03 03:05:20;;;;;;;7.57;6.83;;;17.40;90.10;;;16.76;76.59;97992.59;5074953;28;20931;-74
2022/08/03 03:07:48;;;;;;;10.20;7.13;;;17.50;89.10;;;16.67;76.49;97995.75;5066659;28;20476;-75
2022/08/03 03:10:15;;;;;;;6.43;5.83;;;17.50;88.40;;;16.59;76.99;97996.19;5050592;28;20513;-74
2022/08/03 03:12:45;;;;;;;7.03;6.43;;;17.50;89.00;;;16.50;77.46;97992.28;5061211;28;20448;-75
2022/08/03 03:15:12;;;;;;;7.40;6.70;;;17.40;89.50;;;16.50;77.63;98003.19;5067761;28;20444;-75
2022/08/03 03:17:42;;;;;;;10.93;7.03;;;17.40;89.60;;;16.35;77.96;98001.94;5078830;28;20486;-73
2022/08/03 03:20:11;;;;;;;7.40;6.80;;;17.30;90.10;;;16.36;78.48;98006.31;5074705;28;20487;-74
2022/08/03 03:22:39;;;;;;;7.40;6.80;;;17.20;90.30;;;16.35;78.14;98001.94;5090495;28;20449;-74
2022/08/03 03:25:07;;;;;;;6.70;6.20;;;17.20;90.30;;;16.26;78.21;97998.81;5090826;28;20468;-74
2022/08/03 03:27:35;;;;;;;6.97;6.37;;;17.20;90.20;;;16.39;77.91;98008.50;5088543;28;20520;-74
2022/08/03 03:30:04;;;;;;;7.20;6.67;;;17.20;90.10;;;16.28;78.06;98014.91;5085017;28;20460;-73
2022/08/03 03:32:31;;;;;;;7.00;6.50;;;17.20;90.20;;;16.28;77.90;98017.63;5094111;28;20440;-74
2022/08/03 03:35:01;;;;;;;7.53;6.83;;;17.20;90.30;;;15.75;79.08;97955.31;5092665;28;20530;-74
2022/08/03 03:37:28;;;;;;;8.13;7.33;;;17.00;90.60;;;16.17;79.06;98010.41;5086000;28;20460;-74
2022/08/03 03:39:56;;;;;;;10.60;7.50;;;17.00;90.90;;;16.17;79.04;98003.06;5094036;28;20450;-73
2022/08/03 03:42:25;;;;;;;8.30;7.60;;;17.00;90.90;;;16.26;78.90;98012.44;5088690;28;20456;-74
2022/08/03 03:44:52;;;;;;;8.53;7.27;;;17.00;90.70;;;16.17;79.08;98008.50;5101684;28;20446;-73
2022/08/03 03:47:19;;;;;;;8.27;7.57;;;17.00;90.80;;;16.14;78.60;98007.09;5091642;28;20445;-74
2022/08/03 03:49:47;;;;;;;7.57;6.97;;;17.00;90.50;;;16.16;78.50;98006.03;5085479;28;20466;-75
2022/08/03 03:52:16;;;;;;;7.23;6.60;;;17.00;90.50;;;16.07;78.85;98006.47;5071460;28;20463;-74
2022/08/03 03:54:45;;;;;;;8.37;6.87;;;17.00;90.40;;;15.86;78.64;97968.03;5068781;28;20957;-74
2022/08/03 03:57:12;;;;;;;8.40;7.40;;;17.00;90.50;;;16.10;78.51;98011.41;5083037;28;20459;-73
2022/08/03 03:59:40;;;;;;;8.30;7.50;;;17.00;90.40;;;16.01;78.86;98007.47;5073932;28;20456;-73
2022/08/03 04:02:09;;;;;;;9.40;7.80;;;17.00;90.60;;;15.94;79.34;98010.38;5065981;28;20495;-73
2022/08/03 04:13:10;;;;;;;8.43;7.63;;;17.00;90.90;;;16.28;77.90;98015.75;5084898;28;20452;-74
2022/08/03 04:15:39;;;;;;;10.17;8.27;;;17.10;90.20;;;16.24;78.32;98014.59;5087247;28;20464;-73
2022/08/03 04:18:10;;;;;;;10.07;8.63;;;17.20;90.10;;;15.95;78.36;97967.59;5064822;28;20463;-74
2022/08/03 04:20:41;;;;;;;12.13;8.90;;;17.20;90.00;;;15.98;78.52;98007.97;5073478;28;20535;-72
2022/08/03 04:23:11;;;;;;;11.60;8.73;;;17.00;90.10;;;15.97;78.76;98007.16;5065493;28;20865;-72
2022/08/03 04:25:42;;;;;;;9.73;8.77;;;17.00;90.50;;;16.27;77.92;98024.16;5073410;28;20464;-73
2022/08/03 04:28:10;;;;;;;9.40;8.60;;;17.10;90.20;;;16.28;77.89;98017.63;5071004;28;20559;-74
2022/08/03 04:30:46;;;;;;;12.20;7.30;;;17.10;90.10;;;16.66;76.07;98017.81;5062210;28;20480;-75
2022/08/03 04:33:14;;;;;;;10.03;8.60;;;17.40;88.30;;;16.69;75.24;98015.41;5057806;28;20452;-78
2022/08/03 04:35:43;;;;;;;8.10;7.33;;;17.50;86.80;;;17.39;72.66;98019.41;5098406;27;20456;-78
2022/08/03 04:38:15;;;;;;;9.00;7.17;;;18.10;84.70;;;18.23;68.85;98027.09;5066777;28;20457;-77
2022/08/03 04:40:44;;;;;;;7.67;6.93;;;19.00;82.10;;;18.36;68.13;98025.81;5069758;28;20971;-75
2022/08/03 04:43:13;;;;;;;7.33;6.63;;;19.50;80.50;;;18.91;65.90;98020.81;5060214;28;20983;-76
2022/08/03 04:45:41;;;;;;;8.10;7.20;;;20.10;78.80;;;19.64;63.34;98020.91;5065169;28;20470;-76
2022/08/03 04:48:09;;;;;;;7.00;6.40;;;20.70;77.40;;;19.27;63.62;98009.13;5060522;28;20472;-76
2022/08/03 04:50:37;;;;;;;14.10;8.00;;;20.90;76.20;;;19.23;63.36;98011.56;5056825;28;20860;-77
2022/08/03 04:53:06;;;;;;;13.80;7.27;;;20.90;75.80;;;19.27;63.67;98016.50;5096200;27;20456;-77
2022/08/03 04:55:35;;;;;;;9.10;7.60;;;20.90;75.80;;;19.56;62.51;98007.75;5060887;28;20931;-76
2022/08/03 04:58:05;;;;;;;7.80;6.40;;;21.20;75.00;;;19.86;61.55;98015.09;5102125;27;20598;-78
2022/08/03 05:00:35;;;;;;;7.30;6.77;;;21.30;74.20;;;20.18;61.03;98032.34;5061326;28;20962;-78
2022/08/03 05:03:02;;;;;;;6.63;5.80;;;21.50;73.90;;;21.70;56.78;98034.84;5059723;28;20472;-71
2022/08/03 05:05:29;;;;;;;8.43;7.10;;;22.50;73.00;;;21.79;55.53;98026.81;5067287;28;20478;-72
2022/08/03 05:07:57;;;;;;;7.07;6.47;;;22.70;71.30;;;22.05;54.41;98024.63;5061603;28;20456;-72
2022/08/03 05:10:24;;;;;;;8.67;7.67;;;22.90;70.30;;;21.36;55.99;98032.91;5065556;28;20963;-70
2022/08/03 05:12:53;;;;;;;7.53;6.83;;;22.60;69.70;;;21.85;54.84;98035.81;5059375;28;20464;-71
2022/08/03 05:15:20;;;;;;;15.23;7.33;;;22.80;69.40;;;22.07;53.61;98033.41;5065261;28;20468;-75
2022/08/03 05:17:48;;;;;;;7.10;6.50;;;23.20;68.40;;;22.48;52.03;98031.34;5068205;28;20558;-71
2022/08/03 05:20:16;;;;;;;7.70;7.00;;;23.50;67.30;;;22.43;52.49;98034.13;5075836;28;20532;-70
2022/08/03 05:22:43;;;;;;;7.60;6.73;;;23.60;66.90;;;23.14;50.40;98037.09;5060671;28;20449;-71
2022/08/03 05:25:10;;;;;;;7.50;6.70;;;23.90;66.10;;;23.02;50.51;98044.97;5068431;28;20476;-71
2022/08/03 05:27:37;;;;;;;8.00;7.30;;;24.10;65.20;;;23.29;49.51;98038.00;5065947;28;20501;-71
2022/08/03 05:30:07;;;;;;;8.30;7.40;;;24.40;64.40;;;23.97;48.10;98035.78;5063124;28;20481;-72
2022/08/03 05:32:36;;;;;;;21.90;15.77;;;24.60;63.90;;;23.98;48.14;98042.91;5061368;28;21031;-71
2022/08/03 05:35:04;;;;;;;8.27;7.50;;;24.90;63.30;;;23.43;49.15;98032.53;5067143;28;20448;-71
2022/08/03 05:37:31;;;;;;;13.60;10.80;;;25.10;62.50;;;23.36;49.28;98045.91;5073002;28;20576;-71
2022/08/03 05:39:59;;;;;;;8.90;8.00;;;24.70;62.50;;;23.47;49.33;98039.91;5066301;28;20462;-71
2022/08/03 05:42:26;;;;;;;12.17;8.47;;;24.70;62.60;;;23.37;48.93;98042.84;5078603;28;21032;-72
2022/08/03 05:44:53;;;;;;;9.07;8.27;;;24.60;62.30;;;24.38;46.96;98028.69;5100145;27;20460;-73
2022/08/03 05:47:21;;;;;;;8.30;7.50;;;25.40;61.60;;;24.40;46.88;98039.44;5058714;28;21164;-70
2022/08/03 05:49:49;;;;;;;10.10;7.50;;;25.60;60.70;;;24.69;46.24;98044.63;5059758;28;21280;-72
2022/08/03 05:52:16;;;;;;;9.73;6.57;;;25.60;60.50;;;24.43;46.22;98041.56;5063225;28;20462;-72
2022/08/03 05:54:43;;;;;;;11.83;7.90;;;25.70;59.90;;;24.24;47.00;98045.25;5070149;28;20439;-81
2022/08/03 05:57:11;;;;;;;12.00;7.20;;;25.60;59.90;;;23.29;49.20;98049.84;5066377;28;20539;-72
2022/08/03 05:59:39;;;;;;;10.27;7.13;;;25.30;60.00;;;23.06;49.94;98051.53;5063376;28;20464;-75
2022/08/03 06:02:06;;;;;;;12.87;7.23;;;25.00;60.50;;;23.30;49.19;98045.16;5085401;28;20467;-75
2022/08/03 06:04:35;;;;;;;7.40;6.70;;;25.00;60.40;;;23.58;48.92;98045.25;5058802;28;20517;-76
2022/08/03 06:07:02;;;;;;;9.13;7.23;;;24.90;60.60;;;23.86;47.71;98050.84;5094800;28;21176;-76
2022/08/03 06:09:30;;;;;;;10.97;6.47;;;25.20;60.10;;;24.14;47.42;98040.75;5052180;28;20471;-75
2022/08/03 06:11:57;;;;;;;7.90;7.17;;;25.50;59.70;;;23.90;48.22;98043.63;5051484;28;20541;-84
2022/08/03 06:14:24;;;;;;;9.70;6.83;;;25.40;59.80;;;23.21;49.48;98053.25;5061046;28;20468;-70
2022/08/03 06:16:52;;;;;;;10.93;7.63;;;24.80;60.20;;;22.78;51.21;98052.16;5064265;28;20510;-77
2022/08/03 06:19:19;;;;;;;8.13;6.63;;;24.20;61.40;;;22.49;51.94;98044.81;5078157;28;20464;-76
2022/08/03 06:21:47;;;;;;;8.00;6.97;;;23.70;62.30;;;21.63;54.24;98050.84;5090660;28;20465;-73
2022/08/03 06:24:15;;;;;;;7.80;7.00;;;22.90;63.00;;;20.98;55.69;98052.66;5081623;28;20453;-71
2022/08/03 06:26:42;;;;;;;7.70;6.90;;;22.10;64.10;;;21.18;55.61;98051.72;5059308;28;20452;-70
2022/08/03 06:29:10;;;;;;;7.70;6.03;;;22.00;64.80;;;20.99;56.09;98056.19;5060505;28;20469;-71
2022/08/03 06:31:37;;;;;;;8.20;6.77;;;21.90;65.30;;;20.87;56.34;98057.38;5061165;28;20457;-70
2022/08/03 06:34:05;;;;;;;7.97;6.73;;;21.80;65.70;;;20.94;56.84;98046.09;5091472;28;20464;-71
2022/08/03 06:36:33;;;;;;;9.57;7.90;;;21.80;66.10;;;21.17;55.99;98044.56;5083075;28;20747;-71
2022/08/03 06:39:02;;;;;;;7.57;6.93;;;21.90;66.00;;;21.27;55.69;98042.84;5064675;28;20485;-71
2022/08/03 06:41:29;;;;;;;8.27;7.47;;;22.00;65.70;;;21.22;55.56;98044.53;5067375;28;20960;-71
2022/08/03 06:43:56;;;;;;;9.43;7.23;;;22.00;65.80;;;21.29;55.74;98041.47;5066574;28;20456;-71
2022/08/03 06:46:23;;;;;;;6.97;6.30;;;22.00;66.00;;;21.18;55.45;98005.00;5065376;28;20547;-72
2022/08/03 06:48:51;;;;;;;8.47;6.47;;;22.20;66.00;;;21.45;54.99;98044.91;5066529;28;20835;-72
2022/08/03 06:51:18;;;;;;;7.80;7.20;;;22.20;65.60;;;21.55;54.85;98045.94;5066125;28;20908;-71
2022/08/03 06:53:45;;;;;;;6.73;6.20;;;22.30;65.70;;;21.83;54.61;98046.28;5068697;28;20960;-71
2022/08/03 06:56:14;;;;;;;7.63;6.93;;;22.50;66.30;;;21.73;54.37;98050.75;5069724;28;20449;-71
2022/08/03 06:58:41;;;;;;;8.00;6.20;;;22.50;65.50;;;22.05;53.88;98051.31;5069183;28;20824;-71
2022/08/03 07:01:08;;;;;;;88.67;82.97;;;22.70;65.60;;;22.21;53.28;98055.53;5069796;28;20471;-71
2022/08/03 07:03:35;;;;;;;6.90;6.20;;;22.90;65.20;;;22.41;52.67;98052.88;5067671;28;20824;-73
2022/08/03 07:06:03;;;;;;;7.30;5.67;;;23.10;65.00;;;22.64;52.12;98051.25;5068825;28;21024;-71
2022/08/03 07:08:30;;;;;;;5.83;5.43;;;23.30;64.70;;;22.70;51.81;98055.56;5068373;28;20461;-70
2022/08/03 07:10:57;;;;;;;11.23;5.00;;;23.40;64.50;;;22.72;51.84;98047.81;5068541;28;20968;-72
2022/08/03 07:13:26;;;;;;;6.07;4.67;;;23.50;64.60;;;22.86;51.53;98047.94;5069231;28;20815;-71
2022/08/03 07:15:53;;;;;;;6.53;4.67;;;23.60;64.30;;;22.68;52.05;98059.75;5071705;28;21268;-71
2022/08/03 07:18:21;;;;;;;5.50;5.00;;;23.50;64.20;;;22.66;51.73;98060.03;5068393;28;20516;-70
2022/08/03 07:20:48;;;;;;;5.10;4.70;;;23.50;63.90;;;22.76;51.64;98059.91;5072123;28;20452;-71
2022/08/03 07:23:16;;;;;;;5.37;4.87;;;23.40;64.00;;;22.76;51.56;98053.56;5068696;28;20495;-71
2022/08/03 07:25:43;;;;;;;5.67;4.87;;;23.50;64.10;;;22.92;51.27;98051.44;5080337;28;20458;-71
2022/08/03 07:28:10;;;;;;;4.37;4.07;;;23.50;64.00;;;23.09;50.77;98055.63;5067458;28;20470;-71
2022/08/03 07:30:39;;;;;;;5.13;4.63;;;23.70;63.80;;;23.04;50.41;98053.75;5069218;28;20517;-70
2022/08/03 07:33:06;;;;;;;4.73;4.30;;;23.80;63.30;;;23.02;50.46;98042.22;5060418;28;20522;-71
2022/08/03 07:35:33;;;;;;;6.93;4.60;;;23.80;63.20;;;23.29;49.95;98044.31;5068686;28;20512;-70
2022/08/03 07:38:01;;;;;;;8.13;4.40;;;23.90;63.20;;;23.55;49.74;98046.69;5068421;28;20464;-71
2022/08/03 07:40:28;;;;;;;6.47;4.33;;;24.10;63.20;;;23.70;49.11;98048.38;5069178;28;20925;-71
2022/08/03 07:42:55;;;;;;;6.30;4.80;;;24.40;62.90;;;23.69;48.99;98049.47;5067381;28;20569;-71
2022/08/03 07:45:23;;;;;;;5.53;4.30;;;24.40;62.60;;;24.07;48.41;98045.81;5068146;28;20899;-71
2022/08/03 07:47:51;;;;;;;4.87;4.47;;;24.60;62.50;;;24.02;48.31;98049.50;5067808;28;20441;-70
2022/08/03 07:50:19;;;;;;;5.73;5.00;;;24.70;62.10;;;24.10;48.41;98049.94;5067293;28;20554;-71
2022/08/03 07:52:50;;;;;;;5.20;4.27;;;24.70;62.00;;;24.23;48.09;98038.09;5082179;28;20819;-71
2022/08/03 07:55:20;;;;;;;4.60;4.30;;;24.80;62.10;;;24.36;47.41;98035.66;5066845;28;20560;-71
2022/08/03 07:57:47;;;;;;;10.10;4.50;;;25.00;61.70;;;24.73;46.91;98044.84;5065560;28;20455;-72
2022/08/03 08:00:18;;;;;;;4.13;3.70;;;25.20;61.40;;;24.83;46.76;98039.13;5068276;28;20452;-72
2022/08/03 08:02:46;;;;;;;4.07;3.70;;;25.40;61.10;;;24.94;46.02;98033.34;5068501;28;20980;-71
2022/08/03 08:05:14;;;;;;;4.20;3.80;;;25.50;60.60;;;24.77;45.93;98029.28;5068032;28;20470;-72
2022/08/03 08:07:42;;;;;;;4.40;4.00;;;25.50;60.30;;;24.80;46.35;98034.22;5067982;28;20576;-72
2022/08/03 08:10:10;;;;;;;4.37;3.80;;;25.50;60.40;;;24.93;46.14;98031.72;5065866;28;20477;-71
2022/08/03 08:12:38;;;;;;;5.60;3.93;;;25.60;60.60;;;25.12;46.06;98034.34;5069056;28;20947;-70
2022/08/03 08:15:08;;;;;;;4.07;3.77;;;25.70;60.40;;;25.21;45.26;98023.38;5066990;28;20963;-72
2022/08/03 08:17:43;;;;;;;4.73;4.30;;;25.80;59.70;;;25.54;44.60;98023.16;5068835;28;20512;-72
2022/08/03 08:20:12;;;;;;;4.50;4.10;;;26.00;59.30;;;25.66;44.18;98025.38;5066072;28;20455;-73
2022/08/03 08:22:41;;;;;;;4.43;3.90;;;26.20;59.30;;;25.64;44.34;98024.88;5067734;28;20941;-71
2022/08/03 08:25:08;;;;;;;3.77;3.47;;;26.20;58.90;;;25.79;43.74;98023.66;5067618;28;20551;-72
2022/08/03 08:27:42;;;;;;;3.83;3.33;;;26.30;58.70;;;26.08;43.05;98025.13;5068796;28;20463;-70
2022/08/03 08:30:12;;;;;;;3.77;3.47;;;26.50;58.20;;;26.16;42.92;98018.81;5066659;28;21006;-72
2022/08/03 08:32:40;;;;;;;4.03;3.70;;;26.70;58.10;;;26.28;42.32;98007.97;5064148;28;20513;-71
2022/08/03 08:35:09;;;;;;;4.50;3.30;;;26.80;57.70;;;26.58;41.91;98016.53;5066189;28;20460;-72
2022/08/03 08:37:36;;;;;;;3.40;3.10;;;27.00;57.40;;;26.57;41.85;98014.91;5066979;28;20494;-72
2022/08/03 08:40:07;;;;;;;4.50;3.57;;;27.10;57.20;;;26.64;41.49;98019.16;5065172;28;20466;-71
2022/08/03 08:42:37;;;;;;;5.10;3.20;;;27.20;57.00;;;26.67;41.27;98015.75;5067737;28;20449;-71
2022/08/03 08:45:07;;;;;;;5.30;3.57;;;27.20;56.50;;;26.98;40.81;98012.09;5062266;28;20475;-72
2022/08/03 08:47:39;;;;;;;4.97;3.20;;;27.40;56.50;;;27.10;40.38;98015.03;5066891;28;20459;-72
2022/08/03 08:50:08;;;;;;;3.47;3.17;;;27.60;56.10;;;27.20;40.14;98021.38;5067053;28;20545;-71
2022/08/03 08:52:38;;;;;;;5.10;3.30;;;27.70;55.80;;;27.34;39.82;98016.47;5068031;28;20448;-72
2022/08/03 08:55:09;;;;;;;4.53;3.30;;;27.80;55.40;;;27.40;39.58;98017.97;5065193;28;20542;-72
2022/08/03 08:57:39;;;;;;;4.33;3.67;;;27.90;55.20;;;27.46;38.99;98015.00;5067497;28;20936;-71
2022/08/03 09:00:12;;;;;;;3.57;3.10;;;27.90;54.60;;;27.37;39.21;98012.25;5068679;28;20469;-70
2022/08/03 09:02:41;;;;;;;3.43;3.17;;;27.90;54.50;;;27.54;38.72;98009.47;5062675;28;20453;-71
2022/08/03 09:05:11;;;;;;;3.53;3.33;;;28.00;54.30;;;27.64;38.38;98010.31;5062433;28;20551;-72
2022/08/03 09:07:39;;;;;;;3.50;3.20;;;28.10;54.20;;;27.64;38.10;98002.78;5070629;28;20539;-72
2022/08/03 09:10:10;;;;;;;4.03;3.67;;;28.20;53.60;;;27.55;38.09;98002.00;5065281;28;20484;-72
2022/08/03 09:12:40;;;;;;;3.10;2.90;;;28.20;53.40;;;27.90;37.46;98001.91;5065710;28;20449;-72
2022/08/03 09:15:23;;;;;;;3.57;3.30;;;28.30;53.10;;;27.80;37.11;98005.03;5082403;28;20456;-71
2022/08/03 09:17:52;;;;;;;4.27;3.53;;;28.30;52.60;;;27.92;36.69;97999.63;5056830;28;20814;-71
2022/08/03 09:20:22;;;;;;;6.47;3.27;;;28.40;52.20;;;27.93;36.74;97990.13;5067225;28;20928;-71
2022/08/03 09:22:57;;;;;;;4.93;3.57;;;28.50;52.10;;;27.78;37.11;97999.81;5066044;28;20944;-71
2022/08/03 09:25:32;;;;;;;3.40;3.10;;;28.40;52.30;;;28.11;37.04;97995.63;5099141;28;20952;-71
2022/08/03 09:28:09;;;;;;;8.60;3.33;;;28.50;52.50;;;28.09;36.09;97964.59;5096742;28;20880;-72
2022/08/03 09:30:39;;;;;;;3.03;2.83;;;28.70;51.60;;;28.33;34.64;97983.47;5065590;28;20479;-71
2022/08/03 09:33:08;;;;;;;7.10;3.20;;;28.80;50.50;;;28.44;34.96;97992.25;5082096;28;20456;-71
2022/08/03 09:35:43;;;;;;;3.27;2.97;;;28.90;50.70;;;28.48;34.83;97986.81;5066502;28;20449;-72
2022/08/03 09:38:15;;;;;;;3.47;3.17;;;29.00;50.70;;;28.53;34.12;97995.78;5065754;28;20452;-71
2022/08/03 09:40:45;;;;;;;3.20;3.00;;;29.00;49.90;;;28.50;34.57;97985.34;5062408;28;20453;-72
2022/08/03 09:43:13;;;;;;;3.47;2.93;;;29.00;50.10;;;28.56;34.52;97986.78;5066476;28;20523;-72
2022/08/03 09:45:41;;;;;;;3.67;2.97;;;29.10;50.10;;;28.58;34.47;97989.22;5066023;28;21001;-72
2022/08/03 09:48:28;;;;;;;5.90;3.27;;;29.10;50.00;;;28.63;35.12;97985.44;5067525;28;20698;-71
2022/08/03 09:50:58;;;;;;;3.33;3.03;;;29.10;50.60;;;28.79;35.21;97991.22;5066904;28;20476;-72
2022/08/03 09:53:26;;;;;;;3.37;3.13;;;29.20;50.70;;;28.55;34.63;97985.13;5060355;28;20469;-72
2022/08/03 09:55:56;;;;;;;3.60;2.97;;;29.20;49.90;;;28.54;35.10;97985.50;5070878;28;20741;-71
2022/08/03 09:58:25;;;;;;;4.70;3.63;;;29.10;50.10;;;28.54;35.06;97986.28;5055349;28;20479;-72
2022/08/03 10:00:58;;;;;;;3.83;3.47;;;29.10;50.20;;;28.52;34.76;97973.91;5074905;28;20885;-73
2022/08/03 10:03:27;;;;;;;3.50;3.20;;;29.10;50.10;;;28.59;34.98;97982.50;5065943;28;20468;-75
2022/08/03 10:05:56;;;;;;;3.70;3.40;;;29.10;50.10;;;28.79;34.78;97985.66;5074865;28;20442;-76
2022/08/03 10:08:24;;;;;;;3.43;3.20;;;29.20;50.30;;;28.63;34.78;97980.69;5085854;28;20456;-76
2022/08/03 10:10:53;;;;;;;3.60;3.40;;;29.10;50.00;;;28.76;34.42;97987.16;5089755;28;20480;-77
2022/08/03 10:13:23;;;;;;;7.50;3.60;;;29.20;49.60;;;28.57;34.65;97979.25;5089661;28;20524;-80
2022/08/03 10:15:51;;;;;;;3.40;3.10;;;29.10;49.70;;;28.75;34.84;97974.41;5076440;28;20458;-77
2022/08/03 10:18:18;;;;;;;4.17;3.53;;;29.10;49.70;;;28.84;34.43;97977.16;5073092;28;20450;-78
2022/08/03 10:20:52;;;;;;;4.47;3.50;;;29.20;49.40;;;28.85;34.75;97964.88;5075490;28;20444;-80
2022/08/03 10:23:23;;;;;;;3.47;3.17;;;29.30;49.60;;;28.88;33.98;97974.50;5073988;28;20467;-80
2022/08/03 10:26:06;;;;;;;3.77;3.23;;;29.30;49.30;;;29.07;34.20;97968.47;5072908;28;20521;-80
2022/08/03 10:28:40;;;;;;;3.50;3.27;;;29.40;49.20;;;29.29;33.74;97958.16;5078113;28;20463;-79
2022/08/03 10:31:11;;;;;;;4.10;3.17;;;29.70;49.00;;;29.27;33.28;97961.25;5098664;28;20475;-75
2022/08/03 10:33:43;;;;;;;3.27;3.03;;;29.70;48.90;;;29.50;33.27;97960.94;5083573;28;20444;-79
2022/08/03 10:36:13;;;;;;;3.60;3.33;;;29.80;48.70;;;29.67;32.37;97952.38;5082910;28;20464;-82